createdAt,value
2018-06-17T00:00:35.843Z,21.14
2018-06-17T00:03:04.074Z,20.99
2018-06-17T00:05:32.328Z,21.01
2018-06-17T00:08:00.583Z,20.90
2018-06-17T00:10:28.903Z,20.73
2018-06-17T00:12:57.094Z,20.69
2018-06-17T00:15:25.359Z,20.52
2018-06-17T00:17:53.603Z,20.82
2018-06-17T00:20:21.840Z,20.48
2018-06-17T00:22:50.220Z,20.57
2018-06-17T00:25:18.522Z,20.44
2018-06-17T00:27:46.732Z,20.52
2018-06-17T00:30:14.967Z,20.67
2018-06-17T00:32:43.176Z,20.30
2018-06-17T00:35:11.365Z,20.61
2018-06-17T00:37:39.640Z,20.48
2018-06-17T00:40:07.847Z,20.42
2018-06-17T00:42:36.181Z,19.80
2018-06-17T00:45:04.576Z,19.90
2018-06-17T00:47:32.790Z,19.96
2018-06-17T00:50:01.001Z,19.87
2018-06-17T00:52:29.230Z,19.80
2018-06-17T00:54:57.474Z,19.71
2018-06-17T00:57:37.111Z,19.15
2018-06-17T01:02:57.197Z,19.66
2018-06-17T01:05:25.388Z,19.69
2018-06-17T01:07:53.791Z,19.74
2018-06-17T01:10:22.008Z,19.69
2018-06-17T01:12:50.198Z,19.70
2018-06-17T01:15:18.466Z,19.70
2018-06-17T01:17:46.740Z,19.70
2018-06-17T01:20:15.020Z,19.90
2018-06-17T01:22:43.228Z,19.82
2018-06-17T01:25:11.489Z,19.92
2018-06-17T01:27:39.686Z,19.88
2018-06-17T01:30:07.916Z,19.93
2018-06-17T01:32:36.136Z,19.96
2018-06-17T01:35:04.583Z,19.99
2018-06-17T01:37:32.779Z,19.85
2018-06-17T01:40:00.973Z,19.96
2018-06-17T01:42:29.207Z,20.09
2018-06-17T01:44:57.384Z,20.08
2018-06-17T01:47:25.634Z,19.77
2018-06-17T01:49:53.846Z,19.91
2018-06-17T01:52:22.134Z,19.86
2018-06-17T01:54:50.451Z,19.93
2018-06-17T01:57:18.734Z,20.02
2018-06-17T01:59:46.922Z,20.06
2018-06-17T02:02:15.126Z,19.86
2018-06-17T02:04:48.703Z,19.75
2018-06-17T02:07:22.203Z,19.67
2018-06-17T02:09:55.656Z,19.86
2018-06-17T02:12:23.843Z,19.78
2018-06-17T02:14:57.153Z,19.75
2018-06-17T02:17:26.135Z,19.88
2018-06-17T02:19:55.204Z,20.01
2018-06-17T02:22:23.687Z,19.75
2018-06-17T02:24:51.926Z,19.79
2018-06-17T02:27:20.532Z,19.63
2018-06-17T02:29:48.777Z,19.58
2018-06-17T02:32:16.965Z,19.44
2018-06-17T02:34:45.225Z,19.53
2018-06-17T02:37:13.409Z,19.55
2018-06-17T02:39:42.273Z,19.47
2018-06-17T02:42:10.835Z,19.47
2018-06-17T02:44:39.196Z,19.50
2018-06-17T02:47:12.781Z,19.50
2018-06-17T02:49:45.314Z,19.64
2018-06-17T02:52:18.924Z,19.45
2018-06-17T02:54:48.217Z,19.28
2018-06-17T02:57:17.636Z,19.23
2018-06-17T02:59:46.853Z,19.33
2018-06-17T03:02:15.384Z,19.29
2018-06-17T03:04:43.644Z,19.06
2018-06-17T03:07:11.899Z,19.06
2018-06-17T03:09:40.253Z,19.30
2018-06-17T03:12:08.464Z,19.40
2018-06-17T03:14:36.693Z,19.19
2018-06-17T03:17:04.913Z,19.41
2018-06-17T03:19:33.119Z,19.36
2018-06-17T03:22:01.320Z,19.18
2018-06-17T03:24:35.091Z,19.22
2018-06-17T03:27:08.545Z,19.00
2018-06-17T03:29:42.248Z,18.99
2018-06-17T03:32:15.854Z,19.03
2018-06-17T03:34:44.567Z,19.01
2018-06-17T03:37:12.785Z,18.89
2018-06-17T03:39:41.197Z,18.89
2018-06-17T03:42:09.449Z,18.89
2018-06-17T03:44:37.652Z,18.81
2018-06-17T03:47:05.876Z,18.82
2018-06-17T03:49:34.100Z,19.09
2018-06-17T03:52:02.424Z,19.00
2018-06-17T03:54:30.665Z,18.95
2018-06-17T03:56:59.020Z,19.03
2018-06-17T03:59:27.218Z,19.09
2018-06-17T04:01:55.463Z,19.24
2018-06-17T04:04:23.906Z,19.06
2018-06-17T04:06:52.764Z,19.06
2018-06-17T04:09:21.008Z,19.06
2018-06-17T04:11:49.779Z,19.17
2018-06-17T04:14:18.120Z,19.37
2018-06-17T04:16:46.362Z,19.29
2018-06-17T04:19:14.964Z,19.19
2018-06-17T04:21:43.150Z,19.11
2018-06-17T04:24:11.408Z,19.10
2018-06-17T04:26:39.652Z,19.08
2018-06-17T04:29:07.911Z,19.26
2018-06-17T04:31:36.192Z,19.17
2018-06-17T04:34:04.601Z,19.22
2018-06-17T04:36:32.851Z,19.36
2018-06-17T04:39:01.102Z,19.24
2018-06-17T04:41:29.373Z,18.96
2018-06-17T04:43:57.617Z,19.24
2018-06-17T04:46:26.564Z,19.07
2018-06-17T04:48:54.781Z,19.03
2018-06-17T04:51:23.071Z,18.84
2018-06-17T04:53:51.383Z,19.15
2018-06-17T04:56:19.671Z,19.03
2018-06-17T04:58:47.872Z,19.07
2018-06-17T05:01:16.180Z,19.11
2018-06-17T05:03:44.506Z,19.08
2018-06-17T05:06:12.762Z,19.34
2018-06-17T05:08:41.022Z,18.94
2018-06-17T05:11:09.255Z,19.27
2018-06-17T05:13:37.496Z,19.35
2018-06-17T05:16:05.769Z,19.16
2018-06-17T05:18:34.011Z,18.59
2018-06-17T05:21:02.209Z,18.70
2018-06-17T05:23:30.447Z,19.04
2018-06-17T05:25:58.668Z,18.92
2018-06-17T05:28:26.937Z,18.96
2018-06-17T05:30:55.119Z,18.93
2018-06-17T05:33:23.335Z,18.87
2018-06-17T05:35:51.612Z,19.27
2018-06-17T05:38:19.820Z,19.30
2018-06-17T05:40:48.038Z,19.16
2018-06-17T05:43:16.280Z,19.28
2018-06-17T05:45:44.621Z,19.31
2018-06-17T05:48:12.957Z,19.09
2018-06-17T05:50:41.176Z,19.33
2018-06-17T05:53:09.370Z,19.24
2018-06-17T05:55:37.692Z,19.18
2018-06-17T05:58:05.866Z,19.26
2018-06-17T06:00:34.085Z,19.06
2018-06-17T06:03:02.374Z,19.16
2018-06-17T06:05:30.641Z,19.10
2018-06-17T06:07:58.924Z,19.05
2018-06-17T06:10:33.571Z,19.01
2018-06-17T06:13:02.587Z,18.93
2018-06-17T06:15:30.779Z,18.91
2018-06-17T06:17:59.770Z,19.03
2018-06-17T06:20:28.034Z,18.96
2018-06-17T06:22:56.592Z,18.92
2018-06-17T06:25:24.787Z,18.94
2018-06-17T06:27:53.013Z,19.01
2018-06-17T06:30:21.237Z,19.13
2018-06-17T06:32:50.135Z,19.29
2018-06-17T06:35:18.428Z,19.18
2018-06-17T06:37:46.650Z,19.19
2018-06-17T06:40:14.975Z,19.24
2018-06-17T06:42:43.194Z,19.29
2018-06-17T06:45:11.471Z,18.88
2018-06-17T06:47:39.897Z,19.06
2018-06-17T06:50:08.341Z,18.99
2018-06-17T06:52:36.565Z,19.15
2018-06-17T06:55:04.786Z,19.12
2018-06-17T06:57:33.077Z,18.99
2018-06-17T07:00:01.267Z,19.00
2018-06-17T07:02:40.842Z,19.10
2018-06-17T07:05:20.248Z,19.01
2018-06-17T07:07:59.888Z,18.99
2018-06-17T07:10:29.114Z,19.10
2018-06-17T07:12:57.308Z,19.14
2018-06-17T07:15:37.982Z,19.15
2018-06-17T07:18:17.688Z,19.47
2018-06-17T07:20:46.163Z,19.39
2018-06-17T07:23:14.736Z,19.31
2018-06-17T07:26:53.292Z,19.36
2018-06-17T07:29:34.062Z,19.25
2018-06-17T07:32:02.231Z,19.54
2018-06-17T07:34:30.578Z,19.49
2018-06-17T07:36:58.784Z,19.27
2018-06-17T07:41:35.108Z,19.28
2018-06-17T07:44:03.861Z,19.11
2018-06-17T07:46:32.730Z,19.22
2018-06-17T07:49:41.546Z,19.30
2018-06-17T07:52:22.138Z,19.50
2018-06-17T07:54:50.554Z,19.53
2018-06-17T07:57:21.680Z,19.42
2018-06-17T07:59:49.947Z,19.44
2018-06-17T08:02:19.324Z,19.48
2018-06-17T08:04:47.628Z,19.46
2018-06-17T08:07:15.803Z,19.52
2018-06-17T08:09:44.045Z,19.56
2018-06-17T08:12:12.820Z,19.64
2018-06-17T08:14:41.473Z,19.76
2018-06-17T08:17:09.689Z,19.63
2018-06-17T08:19:38.119Z,19.95
2018-06-17T08:22:06.324Z,19.94
2018-06-17T08:24:34.998Z,20.04
2018-06-17T08:27:03.190Z,20.10
2018-06-17T08:29:31.425Z,20.12
2018-06-17T08:31:59.623Z,19.96
2018-06-17T08:34:27.877Z,20.07
2018-06-17T08:36:56.416Z,20.21
2018-06-17T08:39:25.206Z,20.40
2018-06-17T08:41:53.518Z,20.40
2018-06-17T08:44:22.080Z,20.35
2018-06-17T08:46:50.753Z,20.27
2018-06-17T08:49:19.588Z,20.21
2018-06-17T08:51:47.902Z,20.34
2018-06-17T08:54:16.195Z,20.48
2018-06-17T08:56:44.542Z,20.62
2018-06-17T08:59:12.770Z,20.93
2018-06-17T09:01:41.127Z,20.68
2018-06-17T09:04:09.427Z,20.44
2018-06-17T09:06:37.706Z,20.61
2018-06-17T09:09:10.495Z,20.69
2018-06-17T09:11:38.903Z,20.56
2018-06-17T09:14:07.222Z,20.45
2018-06-17T09:16:35.412Z,20.65
2018-06-17T09:19:03.679Z,20.89
2018-06-17T09:21:31.915Z,20.73
2018-06-17T09:24:00.643Z,20.77
2018-06-17T09:26:28.860Z,20.79
2018-06-17T09:28:57.500Z,20.61
2018-06-17T09:31:25.821Z,20.96
2018-06-17T09:33:54.178Z,21.18
2018-06-17T09:36:22.408Z,21.30
2018-06-17T09:38:50.640Z,21.40
2018-06-17T09:41:18.877Z,21.05
2018-06-17T09:43:47.065Z,20.96
2018-06-17T09:46:15.305Z,21.06
2018-06-17T09:48:43.537Z,21.04
2018-06-17T09:51:11.756Z,21.01
2018-06-17T09:53:39.976Z,21.08
2018-06-17T09:56:08.262Z,21.35
2018-06-17T09:58:36.561Z,21.28
2018-06-17T10:01:04.815Z,21.34
2018-06-17T10:03:33.031Z,21.39
2018-06-17T10:06:01.241Z,21.33
2018-06-17T10:08:29.484Z,21.17
2018-06-17T10:11:02.728Z,20.99
2018-06-17T10:13:32.354Z,21.27
2018-06-17T10:16:00.695Z,21.42
2018-06-17T10:18:29.495Z,21.52
2018-06-17T10:20:57.777Z,21.73
2018-06-17T10:23:26.116Z,21.69
2018-06-17T10:25:55.139Z,21.74
2018-06-17T10:28:24.690Z,21.60
2018-06-17T10:30:53.776Z,21.74
2018-06-17T10:33:22.643Z,21.54
2018-06-17T10:35:51.140Z,21.37
2018-06-17T10:38:19.402Z,21.60
2018-06-17T10:40:47.620Z,21.91
2018-06-17T10:43:19.212Z,21.94
2018-06-17T10:45:47.444Z,21.64
2018-06-17T10:48:15.980Z,21.42
2018-06-17T10:50:44.284Z,21.63
2018-06-17T10:53:12.562Z,21.70
2018-06-17T10:55:40.897Z,21.74
2018-06-17T10:58:09.089Z,21.55
2018-06-17T11:00:37.283Z,21.64
2018-06-17T11:03:05.577Z,21.65
2018-06-17T11:05:33.843Z,21.83
2018-06-17T11:08:02.039Z,21.87
2018-06-17T11:10:30.416Z,22.09
2018-06-17T11:12:58.670Z,22.13
2018-06-17T11:15:26.918Z,21.82
2018-06-17T11:17:55.152Z,21.74
2018-06-17T11:20:23.403Z,21.59
2018-06-17T11:22:51.571Z,21.78
2018-06-17T11:25:19.810Z,22.04
2018-06-17T11:27:48.046Z,22.14
2018-06-17T11:30:16.296Z,22.18
2018-06-17T11:32:44.581Z,21.92
2018-06-17T11:35:12.900Z,21.74
2018-06-17T11:37:41.130Z,21.82
2018-06-17T11:40:09.349Z,21.99
2018-06-17T11:42:37.578Z,21.80
2018-06-17T11:45:05.819Z,21.84
2018-06-17T11:47:34.028Z,21.79
2018-06-17T11:50:02.327Z,21.94
2018-06-17T11:52:30.536Z,21.99
2018-06-17T11:54:58.768Z,21.98
2018-06-17T11:57:27.078Z,22.18
2018-06-17T11:59:55.312Z,22.13
2018-06-17T12:02:23.541Z,22.26
2018-06-17T12:04:52.671Z,22.20
2018-06-17T12:07:21.026Z,22.35
2018-06-17T12:09:49.268Z,22.48
2018-06-17T12:12:17.486Z,22.24
2018-06-17T12:14:45.753Z,22.35
2018-06-17T12:17:13.945Z,22.17
2018-06-17T12:19:42.151Z,22.25
2018-06-17T12:22:10.429Z,22.49
2018-06-17T12:24:38.713Z,22.59
2018-06-17T12:27:07.082Z,22.55
2018-06-17T12:29:35.301Z,22.77
2018-06-17T12:32:03.540Z,22.62
2018-06-17T12:34:31.762Z,22.65
2018-06-17T12:37:00.495Z,22.68
2018-06-17T12:39:34.263Z,22.76
2018-06-17T12:42:02.595Z,23.18
2018-06-17T12:44:30.860Z,22.89
2018-06-17T12:46:59.102Z,23.15
2018-06-17T12:49:28.039Z,23.13
2018-06-17T12:51:56.349Z,22.98
2018-06-17T12:54:24.743Z,22.98
2018-06-17T12:56:52.992Z,22.98
2018-06-17T12:59:21.257Z,23.16
2018-06-17T13:01:49.546Z,23.05
2018-06-17T13:04:17.902Z,22.90
2018-06-17T13:06:46.170Z,23.10
2018-06-17T13:09:14.486Z,22.95
2018-06-17T13:11:42.703Z,22.78
2018-06-17T13:14:10.942Z,22.76
2018-06-17T13:16:39.195Z,22.74
2018-06-17T13:19:07.934Z,22.56
2018-06-17T13:21:36.201Z,22.64
2018-06-17T13:24:04.642Z,22.49
2018-06-17T13:26:32.921Z,22.57
2018-06-17T13:29:01.139Z,22.77
2018-06-17T13:31:29.437Z,22.95
2018-06-17T13:33:57.649Z,23.09
2018-06-17T13:36:25.913Z,23.19
2018-06-17T13:38:54.130Z,23.35
2018-06-17T13:41:22.350Z,23.50
2018-06-17T13:43:50.543Z,23.76
2018-06-17T13:46:18.761Z,23.89
2018-06-17T13:48:46.936Z,24.16
2018-06-17T13:51:15.192Z,23.79
2018-06-17T13:53:43.404Z,23.73
2018-06-17T13:56:11.632Z,23.59
2018-06-17T13:58:39.868Z,23.39
2018-06-17T14:01:08.118Z,23.59
2018-06-17T14:03:36.343Z,23.70
2018-06-17T14:06:04.640Z,23.32
2018-06-17T14:08:32.858Z,23.36
2018-06-17T14:11:01.127Z,23.41
2018-06-17T14:13:29.396Z,23.45
2018-06-17T14:15:57.580Z,23.28
2018-06-17T14:18:25.814Z,23.34
2018-06-17T14:20:54.062Z,23.22
2018-06-17T14:23:22.459Z,23.43
2018-06-17T14:25:50.811Z,23.28
2018-06-17T14:28:19.014Z,23.18
2018-06-17T14:30:47.260Z,23.10
2018-06-17T14:33:15.473Z,23.28
2018-06-17T14:35:43.749Z,23.14
2018-06-17T14:38:11.970Z,23.19
2018-06-17T14:40:45.440Z,23.30
2018-06-17T14:43:18.973Z,23.18
2018-06-17T14:45:52.640Z,23.26
2018-06-17T14:48:26.112Z,23.23
2018-06-17T14:50:59.592Z,23.25
2018-06-17T14:53:27.858Z,22.87
2018-06-17T14:55:56.037Z,23.36
2018-06-17T14:58:24.260Z,23.37
2018-06-17T15:00:52.461Z,23.31
2018-06-17T15:03:20.703Z,23.38
2018-06-17T15:05:48.997Z,23.37
2018-06-17T15:08:17.204Z,23.26
2018-06-17T15:10:45.460Z,23.18
2018-06-17T15:13:13.700Z,23.38
2018-06-17T15:15:42.761Z,23.38
2018-06-17T15:18:11.007Z,23.39
2018-06-17T15:20:39.273Z,23.36
2018-06-17T15:23:07.604Z,23.19
2018-06-17T15:25:35.903Z,23.25
2018-06-17T15:28:04.154Z,23.38
2018-06-17T15:30:32.399Z,23.56
2018-06-17T15:33:05.869Z,23.54
2018-06-17T15:35:39.611Z,23.43
2018-06-17T15:38:13.106Z,23.57
2018-06-17T15:40:46.865Z,23.58
2018-06-17T15:43:15.062Z,23.40
2018-06-17T15:45:43.329Z,23.23
2018-06-17T15:48:11.559Z,23.40
2018-06-17T15:50:39.843Z,23.41
2018-06-17T15:53:08.054Z,23.34
2018-06-17T15:55:36.301Z,23.23
2018-06-17T15:58:04.590Z,23.41
2018-06-17T16:00:32.910Z,23.24
2018-06-17T16:03:01.414Z,23.13
2018-06-17T16:05:29.673Z,23.20
2018-06-17T16:07:58.005Z,23.11
2018-06-17T16:10:26.231Z,23.30
2018-06-17T16:12:59.840Z,23.25
2018-06-17T16:15:33.268Z,23.24
2018-06-17T16:18:07.403Z,23.30
2018-06-17T16:20:40.971Z,23.35
2018-06-17T16:23:09.711Z,23.51
2018-06-17T16:25:37.963Z,23.29
2018-06-17T16:28:06.464Z,23.18
2018-06-17T16:30:34.752Z,23.13
2018-06-17T16:33:03.020Z,23.05
2018-06-17T16:35:31.439Z,23.15
2018-06-17T16:37:59.786Z,23.15
2018-06-17T16:40:28.111Z,23.15
2018-06-17T16:42:56.376Z,23.12
2018-06-17T16:45:24.623Z,22.86
2018-06-17T16:47:52.881Z,22.87
2018-06-17T16:50:21.102Z,22.81
2018-06-17T16:52:54.715Z,22.75
2018-06-17T16:55:28.408Z,22.83
2018-06-17T16:58:01.976Z,22.80
2018-06-17T17:00:30.218Z,22.93
2018-06-17T17:02:58.469Z,22.77
2018-06-17T17:05:26.691Z,22.70
2018-06-17T17:07:54.919Z,22.63
2018-06-17T17:10:23.165Z,22.85
2018-06-17T17:12:51.722Z,22.81
2018-06-17T17:15:19.997Z,22.54
2018-06-17T17:17:48.297Z,22.79
2018-06-17T17:20:16.591Z,22.61
2018-06-17T17:22:44.891Z,22.69
2018-06-17T17:25:13.121Z,22.23
2018-06-17T17:27:41.356Z,22.61
2018-06-17T17:30:09.645Z,22.47
2018-06-17T17:32:43.092Z,22.56
2018-06-17T17:35:16.766Z,22.43
2018-06-17T17:37:50.270Z,22.31
2018-06-17T17:40:23.864Z,22.56
2018-06-17T17:42:52.157Z,22.39
2018-06-17T17:45:22.373Z,22.12
2018-06-17T17:47:50.694Z,22.32
2018-06-17T17:50:18.936Z,22.03
2018-06-17T17:52:47.219Z,21.93
2018-06-17T17:55:15.397Z,21.86
2018-06-17T17:57:43.718Z,22.17
2018-06-17T18:00:11.988Z,22.10
2018-06-17T18:02:40.275Z,21.92
2018-06-17T18:05:08.543Z,22.01
2018-06-17T18:07:36.803Z,21.60
2018-06-17T18:10:05.039Z,22.04
2018-06-17T18:12:33.283Z,22.09
2018-06-17T18:15:01.600Z,22.19
2018-06-17T18:17:29.844Z,22.20
2018-06-17T18:19:58.049Z,21.95
2018-06-17T18:22:26.284Z,22.12
2018-06-17T18:25:00.070Z,22.15
2018-06-17T18:27:33.720Z,22.02
2018-06-17T18:30:07.205Z,21.75
2018-06-17T18:32:40.613Z,21.71
2018-06-17T18:35:14.136Z,21.58
2018-06-17T18:37:42.511Z,21.46
2018-06-17T18:40:10.795Z,21.98
2018-06-17T18:42:39.044Z,21.59
2018-06-17T18:45:07.263Z,21.44
2018-06-17T18:47:35.504Z,21.21
2018-06-17T18:50:03.794Z,21.55
2018-06-17T18:52:32.011Z,21.52
2018-06-17T18:55:00.260Z,21.46
2018-06-17T18:57:28.886Z,21.48
2018-06-17T18:59:57.161Z,21.33
2018-06-17T19:02:25.369Z,21.47
2018-06-17T19:04:53.660Z,21.71
2018-06-17T19:07:21.987Z,21.45
2018-06-17T19:09:55.584Z,21.72
2018-06-17T19:12:29.194Z,21.61
2018-06-17T19:15:03.244Z,21.53
2018-06-17T19:17:37.463Z,21.70
2018-06-17T19:20:05.769Z,21.53
2018-06-17T19:22:34.088Z,21.46
2018-06-17T19:25:02.293Z,21.55
2018-06-17T19:27:30.525Z,21.59
2018-06-17T19:29:58.793Z,21.21
2018-06-17T19:32:27.097Z,20.84
2018-06-17T19:34:55.364Z,21.33
2018-06-17T19:37:23.794Z,21.34
2018-06-17T19:39:52.157Z,21.37
2018-06-17T19:42:20.359Z,21.49
2018-06-17T19:44:48.616Z,21.19
2018-06-17T19:47:16.838Z,21.43
2018-06-17T19:49:50.319Z,21.46
2018-06-17T19:53:24.552Z,21.25
2018-06-17T19:55:58.042Z,21.20
2018-06-17T19:58:31.751Z,21.33
2018-06-17T20:01:01.720Z,21.29
2018-06-17T20:03:29.998Z,21.26
2018-06-17T20:05:58.908Z,21.23
2018-06-17T20:08:27.211Z,21.35
2018-06-17T20:10:55.453Z,21.42
2018-06-17T20:13:23.747Z,21.16
2018-06-17T20:15:51.983Z,21.33
2018-06-17T20:18:20.382Z,21.16
2018-06-17T20:20:48.742Z,21.28
2018-06-17T20:23:17.044Z,21.28
2018-06-17T20:25:45.353Z,21.28
2018-06-17T20:28:13.633Z,21.36
2018-06-17T20:30:41.922Z,21.04
2018-06-17T20:33:15.465Z,21.20
2018-06-17T20:35:49.065Z,21.07
2018-06-17T20:38:22.552Z,20.81
2018-06-17T20:40:56.163Z,20.89
2018-06-17T20:43:29.937Z,20.79
2018-06-17T20:45:58.754Z,20.53
2018-06-17T20:48:27.097Z,20.41
2018-06-17T20:50:55.496Z,20.30
2018-06-17T20:53:23.720Z,20.40
2018-06-17T20:55:52.122Z,20.39
2018-06-17T20:58:20.538Z,20.34
2018-06-17T21:00:48.799Z,20.35
2018-06-17T21:03:17.139Z,20.10
2018-06-17T21:05:45.411Z,20.36
2018-06-17T21:08:13.899Z,20.38
2018-06-17T21:10:42.152Z,20.33
2018-06-17T21:13:10.432Z,20.14
2018-06-17T21:15:38.703Z,20.18
2018-06-17T21:18:07.018Z,20.18
2018-06-17T21:20:40.634Z,20.09
2018-06-17T21:23:14.186Z,20.02
2018-06-17T21:25:47.694Z,20.06
2018-06-17T21:28:15.995Z,20.27
2018-06-17T21:30:44.253Z,20.06
2018-06-17T21:33:12.524Z,19.91
2018-06-17T21:35:40.816Z,20.09
2018-06-17T21:38:09.061Z,19.72
2018-06-17T21:40:37.357Z,19.73
2018-06-17T21:43:05.651Z,20.07
2018-06-17T21:45:33.919Z,19.79
2018-06-17T21:48:02.212Z,19.60
2018-06-17T21:50:31.222Z,19.80
2018-06-17T21:52:59.492Z,19.74
2018-06-17T21:55:27.763Z,19.67
2018-06-17T21:57:56.096Z,19.68
2018-06-17T22:00:25.022Z,19.62
2018-06-17T22:02:53.311Z,19.58
2018-06-17T22:05:21.674Z,19.59
2018-06-17T22:07:55.311Z,19.49
2018-06-17T22:10:28.877Z,19.33
2018-06-17T22:12:59.094Z,19.58
2018-06-17T22:15:32.722Z,19.88
2018-06-17T22:18:01.216Z,19.96
2018-06-17T22:20:29.452Z,19.29
2018-06-17T22:22:57.765Z,19.36
2018-06-17T22:25:27.793Z,19.17
2018-06-17T22:28:02.834Z,19.28
2018-06-17T22:30:34.748Z,18.98
2018-06-17T22:33:07.954Z,19.18
2018-06-17T22:35:39.348Z,19.22
2018-06-17T22:38:07.653Z,19.01
2018-06-17T22:40:35.956Z,19.01
2018-06-17T22:43:04.299Z,18.89
2018-06-17T22:45:32.657Z,19.37
2018-06-17T22:48:00.940Z,19.21
2018-06-17T22:50:29.177Z,19.11
2018-06-17T22:53:08.541Z,19.01
2018-06-17T22:55:36.790Z,18.96
2018-06-17T23:06:04.199Z,18.85
2018-06-17T23:08:37.771Z,19.01
2018-06-17T23:11:06.164Z,18.55
2018-06-17T23:17:54.856Z,18.74
2018-06-17T23:20:23.098Z,18.69
2018-06-17T23:22:51.359Z,18.68
2018-06-17T23:25:33.881Z,18.64
2018-06-17T23:37:43.776Z,18.88
2018-06-17T23:40:12.094Z,18.70
2018-06-17T23:42:40.399Z,18.73
2018-06-17T23:45:22.147Z,18.70
2018-06-17T23:50:41.052Z,18.65
2018-06-17T23:53:14.534Z,18.69
2018-06-17T23:55:50.140Z,18.87
2018-06-17T23:58:30.258Z,19.03
